Perle — V2GH — position and weather

sailwx.info

Track history (hours):
 
Tides and Currents Weather Stations Pressure Air Temp Water Temp Dewpoint Dewpoint Depression Visibility Wind Speed Wind Dir Waves Ship Positions

Perle

Last reported at 2018-Feb-25 14:12 UTC. Time now 2018-Feb-25 15:41 UTC.
Position N 56°36' W 002°04'.

Length 90 m; draft 5.8 m.

Type: Cargo ship. MMSI: 305882000.

Date/timePositionNaut miles runAvg speedWind from/ knotsBaromVisibWave heightAir tempDewpointWater temp
2018-Feb-25 14:12N 56°36' W 002°04'64 9.4
2018-Feb-25 07:21N 56°06' W 000°22'315 9.4
2018-Feb-23 21:57N 54°02' E 008°03'510.4
2018-Feb-23 21:29N 54°00' E 008°11'510.9
2018-Feb-23 21:00N 53°60' E 008°20'813.4
2018-Feb-23 20:25N 53°58' E 008°33'512.4
2018-Feb-23 20:00N 53°56' E 008°40'612.3
2018-Feb-23 19:30N 53°51' E 008°47'511.0
2018-Feb-23 19:00N 53°51' E 008°56'5 9.7
2018-Feb-23 18:30N 53°52' E 009°04'4 8.7
2018-Feb-23 18:00N 53°53' E 009°11'4 8.3
2018-Feb-23 17:30N 53°52' E 009°18'4 8.0
2018-Feb-23 17:00N 53°49' E 009°22'4 7.8
2018-Feb-23 16:30N 53°45' E 009°25'4 7.8
2018-Feb-23 16:00N 53°42' E 009°29'4 8.1
2018-Feb-23 15:30N 53°39' E 009°31'5 9.6
2018-Feb-23 15:00N 53°35' E 009°37'611.4
2018-Feb-23 14:30N 53°34' E 009°46'611.1
2018-Feb-23 14:00N 53°32' E 009°55'3 6.8
2018-Feb-23 13:30N 53°30' E 009°59'0 0.0
2018-Feb-23 12:59N 53°30' E 009°59'0 0.0
2018-Feb-23 12:29N 53°30' E 009°59'0 0.0
2018-Feb-23 11:59N 53°30' E 009°59'0 0.0
2018-Feb-23 11:29N 53°30' E 009°59'0 0.0
2018-Feb-23 10:59N 53°30' E 009°59'0 0.0
2018-Feb-23 10:29N 53°30' E 009°59'0 0.0
2018-Feb-23 09:59N 53°30' E 009°59'0 0.0
2018-Feb-23 09:29N 53°30' E 009°59'0 0.0
2018-Feb-23 08:59N 53°30' E 009°59'0 0.0
2018-Feb-23 08:29N 53°30' E 009°59'0 0.0
2018-Feb-23 07:56N 53°30' E 009°59'0 0.0
2018-Feb-23 07:29N 53°30' E 009°59'0 0.0
2018-Feb-23 06:59N 53°30' E 009°59'0 0.0
2018-Feb-23 06:29N 53°30' E 009°59'0 0.0
2018-Feb-23 05:59N 53°30' E 009°59'0 0.0
2018-Feb-23 05:29N 53°30' E 009°59'0 0.0
2018-Feb-23 04:59N 53°30' E 009°59'0 0.0
2018-Feb-23 04:29N 53°30' E 009°59'0 0.0
2018-Feb-23 03:59N 53°30' E 009°59'0 0.0
2018-Feb-23 03:29N 53°30' E 009°59'0 0.0
2018-Feb-23 02:59N 53°30' E 009°59'0 0.0
2018-Feb-23 02:29N 53°30' E 009°59'0 0.0
2018-Feb-23 01:59N 53°30' E 009°59'0 0.0
2018-Feb-23 01:29N 53°30' E 009°59'0 0.0
2018-Feb-23 00:59N 53°30' E 009°59'0 0.0
2018-Feb-23 00:29N 53°30' E 009°59'0 0.0
2018-Feb-22 23:56N 53°30' E 009°59'0 0.0
2018-Feb-22 23:29N 53°30' E 009°59'0 0.0
2018-Feb-22 22:59N 53°30' E 009°59'0 0.0
2018-Feb-22 22:29N 53°30' E 009°59'0 0.0
2018-Feb-22 21:59N 53°30' E 009°59'0 0.0
2018-Feb-22 21:29N 53°30' E 009°59'0 0.0
2018-Feb-22 20:59N 53°30' E 009°59'0 0.0
2018-Feb-22 20:29N 53°30' E 009°59'0 0.0
2018-Feb-22 19:59N 53°30' E 009°59'0 0.0
2018-Feb-22 19:29N 53°30' E 009°59'0 0.0
2018-Feb-22 18:59N 53°30' E 009°59'0 0.0
2018-Feb-22 18:29N 53°30' E 009°59'0 0.0
2018-Feb-22 17:59N 53°30' E 009°59'0 0.0
2018-Feb-22 17:29N 53°30' E 009°59'0 0.0
2018-Feb-22 16:59N 53°30' E 009°59'0 0.0
2018-Feb-22 16:29N 53°30' E 009°59'0 0.0
2018-Feb-22 15:59N 53°30' E 009°59'0 0.0
2018-Feb-22 15:29N 53°30' E 009°59'0 0.0
2018-Feb-22 14:59N 53°30' E 009°59'0 0.0
2018-Feb-22 14:29N 53°30' E 009°59'0 0.0
2018-Feb-22 13:59N 53°30' E 009°59'0 0.0
2018-Feb-22 13:29N 53°30' E 009°59'0 0.0
2018-Feb-22 12:59N 53°30' E 009°59'0 0.0
2018-Feb-22 12:29N 53°30' E 009°59'0 0.0
2018-Feb-22 11:59N 53°30' E 009°59'0 0.0
2018-Feb-22 11:29N 53°30' E 009°59'0 0.0
2018-Feb-22 10:59N 53°30' E 009°59'0 0.0
2018-Feb-22 10:29N 53°30' E 009°59'0 0.0
2018-Feb-22 09:59N 53°30' E 009°59'0 0.0
2018-Feb-22 09:29N 53°30' E 009°59'0 0.0
2018-Feb-22 08:56N 53°30' E 009°59'0 0.0
2018-Feb-22 08:29N 53°30' E 009°59'1 1.5
2018-Feb-22 08:00N 53°30' E 009°58'3 6.3
2018-Feb-22 07:30N 53°32' E 009°54'4 8.4
2018-Feb-22 07:00N 53°33' E 009°47'4 9.0
2018-Feb-22 06:30N 53°34' E 009°40'5 9.8
2018-Feb-22 06:00N 53°37' E 009°33'4 8.4
2018-Feb-22 05:30N 53°41' E 009°30'4 8.7
2018-Feb-22 05:00N 53°44' E 009°26'4 9.0
2018-Feb-22 04:30N 53°48' E 009°22'4 8.5
2018-Feb-22 04:00N 53°51' E 009°18'4 7.2
2018-Feb-22 03:30N 53°53' E 009°12'4 7.3
2018-Feb-22 03:00N 53°53' E 009°06'510.7
2018-Feb-22 02:30N 53°51' E 008°57'510.9
2018-Feb-22 02:00N 53°50' E 008°48'510.2
2018-Feb-22 01:30N 53°54' E 008°42'611.0
2018-Feb-22 01:00N 53°58' E 008°35'16210.3
2018-Feb-21 09:16N 52°60' E 004°21'412.5
2018-Feb-21 08:55N 52°56' E 004°17'9510.5
2018-Feb-20 23:51N 52°11' E 001°59'3 8.9
2018-Feb-20 23:30N 52°10' E 001°55'4 8.7
2018-Feb-20 23:00N 52°08' E 001°48'4 8.3
2018-Feb-20 22:30N 52°05' E 001°43'4 8.1
2018-Feb-20 22:00N 52°03' E 001°38'4 8.3
2018-Feb-20 21:30N 51°59' E 001°35'4 8.3
2018-Feb-20 21:00N 51°56' E 001°31'4 8.6
2018-Feb-20 20:30N 51°56' E 001°24'4 8.4
2018-Feb-20 20:00N 51°57' E 001°18'4 8.9
2018-Feb-20 19:30N 52°00' E 001°12'3 5.6
2018-Feb-20 19:00N 52°03' E 001°10'0 0.0
2018-Feb-20 18:28N 52°03' E 001°10'0 0.0
2018-Feb-20 17:58N 52°03' E 001°10'0 0.0
2018-Feb-20 17:28N 52°03' E 001°10'0 0.0
2018-Feb-20 16:58N 52°03' E 001°10'0 0.0
2018-Feb-20 16:28N 52°03' E 001°10'0 0.0
2018-Feb-20 15:58N 52°03' E 001°10'0 0.0
2018-Feb-20 15:28N 52°03' E 001°10'0 0.0
2018-Feb-20 14:58N 52°03' E 001°10'0 0.0
2018-Feb-20 14:28N 52°03' E 001°10'0 0.0
2018-Feb-20 13:58N 52°03' E 001°10'0 0.0
2018-Feb-20 13:28N 52°03' E 001°10'0 0.0
2018-Feb-20 12:58N 52°03' E 001°10'0 0.0
2018-Feb-20 12:28N 52°03' E 001°10'0 0.0
2018-Feb-20 11:58N 52°03' E 001°10'0 0.0
2018-Feb-20 11:28N 52°03' E 001°10'0 0.0
2018-Feb-20 10:58N 52°03' E 001°10'0 0.0
2018-Feb-20 10:28N 52°03' E 001°10'0 0.0
2018-Feb-20 09:58N 52°03' E 001°10'0 0.0
2018-Feb-20 09:28N 52°03' E 001°10'0 0.0
2018-Feb-20 08:58N 52°03' E 001°10'0 0.0
2018-Feb-20 08:28N 52°03' E 001°10'0 0.0
2018-Feb-20 07:58N 52°03' E 001°10'0 0.0
2018-Feb-20 07:28N 52°03' E 001°10'0 0.0
2018-Feb-20 06:58N 52°03' E 001°10'0 0.0
2018-Feb-20 06:28N 52°03' E 001°10'0 0.0
2018-Feb-20 05:58N 52°03' E 001°10'0 0.0
2018-Feb-20 05:28N 52°03' E 001°10'0 0.0
2018-Feb-20 04:58N 52°03' E 001°10'0 0.0
2018-Feb-20 04:28N 52°03' E 001°10'0 0.0
2018-Feb-20 03:58N 52°03' E 001°10'0 0.0
2018-Feb-20 03:28N 52°03' E 001°10'0 0.0
2018-Feb-20 02:58N 52°03' E 001°10'0 0.0
2018-Feb-20 02:28N 52°03' E 001°10'0 0.0
2018-Feb-20 01:58N 52°03' E 001°10'0 0.0
2018-Feb-20 01:28N 52°03' E 001°10'0 0.0
2018-Feb-20 00:58N 52°03' E 001°10'0 0.0
2018-Feb-20 00:28N 52°03' E 001°10'0 0.0
2018-Feb-19 23:58N 52°03' E 001°10'0 0.0
2018-Feb-19 23:31N 52°03' E 001°10'2 4.6
2018-Feb-19 23:01N 52°01' E 001°11'4 7.4
2018-Feb-19 22:31N 51°59' E 001°17'4 8.0
2018-Feb-19 22:01N 51°56' E 001°21'4 7.1
2018-Feb-19 21:31N 51°56' E 001°26'3 6.5
2018-Feb-19 21:01N 51°57' E 001°31'3 5.5
2018-Feb-19 20:31N 51°55' E 001°34'2 4.6
2018-Feb-19 20:00N 51°52' E 001°35'3 5.2
2018-Feb-19 19:30N 51°52' E 001°39'3 5.2
2018-Feb-19 19:01N 51°51' E 001°43'3 6.2
2018-Feb-19 18:30N 51°50' E 001°48'4 8.8
2018-Feb-19 18:01N 51°46' E 001°48'5 9.0
2018-Feb-19 17:30N 51°41' E 001°48'4 9.1
2018-Feb-19 17:01N 51°37' E 001°49'5 9.0
2018-Feb-19 16:31N 51°32' E 001°49'5 9.1
2018-Feb-19 16:01N 51°28' E 001°47'5 9.1
2018-Feb-19 15:30N 51°24' E 001°46'612.4
2018-Feb-19 15:00N 51°18' E 001°41'713.3
2018-Feb-19 14:31N 51°12' E 001°37'510.7
2018-Feb-19 14:01N 51°07' E 001°39'612.7
2018-Feb-19 13:30N 51°01' E 001°33'712.7
2018-Feb-19 12:56N 50°56' E 001°26'67 9.6
2018-Feb-19 05:55N 50°20' W 000°04'47 8.4
2018-Feb-19 00:19N 50°08' W 001°15'411.5
2018-Feb-19 00:00N 50°07' W 001°21'612.1
2018-Feb-18 23:30N 50°05' W 001°30'612.6
2018-Feb-18 23:00N 50°03' W 001°39'713.1
2018-Feb-18 22:30N 50°02' W 001°49'6111.7
2018-Feb-18 17:19N 49°51' W 003°22'3 9.7
2018-Feb-18 17:00N 49°51' W 003°26'6 9.1
2018-Feb-18 16:22N 49°51' W 003°35'6 8.8
2018-Feb-18 15:42N 49°51' W 003°44'2 8.6
2018-Feb-18 15:30N 49°51' W 003°47'212 5.6
2018-Feb-17 01:23N 53°22' W 003°49'411.0
2018-Feb-17 01:00N 53°20' W 003°43'3 2.3
2018-Feb-16 23:48N 53°18' W 003°40'0 0.0
2018-Feb-16 23:27N 53°18' W 003°40'0 0.0
2018-Feb-16 23:00N 53°18' W 003°40'0 0.0
2018-Feb-16 22:24N 53°18' W 003°40'0 0.0
2018-Feb-16 21:58N 53°18' W 003°40'0 0.0
2018-Feb-16 21:18N 53°18' W 003°40'0 0.0
2018-Feb-16 21:00N 53°18' W 003°40'0 0.0
2018-Feb-16 20:30N 53°18' W 003°40'0 0.0
2018-Feb-16 20:00N 53°18' W 003°40'1 1.1
2018-Feb-16 19:30N 53°18' W 003°40'2 4.1
2018-Feb-16 19:00N 53°20' W 003°42'610.6
2018-Feb-16 18:29N 53°25' W 003°44'510.5
2018-Feb-16 18:00N 53°30' W 003°43'4 8.7
2018-Feb-16 17:30N 53°33' W 003°37'612.1
2018-Feb-16 17:00N 53°33' W 003°27'612.1
2018-Feb-16 16:30N 53°32' W 003°16'611.5
2018-Feb-16 16:00N 53°31' W 003°07'611.7
2018-Feb-16 15:30N 53°26' W 003°01'0 0.3
2018-Feb-16 15:00N 53°26' W 003°01'0 0.8
2018-Feb-16 14:30N 53°27' W 003°01'0 0.2
2018-Feb-16 13:55N 53°27' W 003°01'0 0.0
2018-Feb-16 13:28N 53°27' W 003°01'0 0.0
2018-Feb-16 12:55N 53°27' W 003°01'0 0.0
2018-Feb-16 12:22N 53°27' W 003°01'0 0.0
2018-Feb-16 11:58N 53°27' W 003°01'0 0.0
2018-Feb-16 11:28N 53°27' W 003°01'0 0.0
2018-Feb-16 10:55N 53°27' W 003°01'0 0.0
2018-Feb-16 10:25N 53°27' W 003°01'0 0.0
2018-Feb-16 09:55N 53°27' W 003°01'0 0.0
2018-Feb-16 09:28N 53°27' W 003°01'0 0.0
2018-Feb-16 08:58N 53°27' W 003°01'0 0.0
2018-Feb-16 08:28N 53°27' W 003°01'0 0.0
2018-Feb-16 07:58N 53°27' W 003°01'0 0.0
2018-Feb-16 07:28N 53°27' W 003°01'0 0.0
2018-Feb-16 06:58N 53°27' W 003°01'0 0.0
2018-Feb-16 06:28N 53°27' W 003°01'0 0.0
2018-Feb-16 05:58N 53°27' W 003°01'0 0.0
2018-Feb-16 05:28N 53°27' W 003°01'0 0.0
2018-Feb-16 04:52N 53°27' W 003°01'0 0.0
2018-Feb-16 04:28N 53°27' W 003°01'0 0.0
2018-Feb-16 03:58N 53°27' W 003°01'0 0.0
2018-Feb-16 03:28N 53°27' W 003°01'0 0.0
2018-Feb-16 02:58N 53°27' W 003°01'0 0.0
2018-Feb-16 02:28N 53°27' W 003°01'0 0.0
2018-Feb-16 01:58N 53°27' W 003°01'0 0.0
2018-Feb-16 01:28N 53°27' W 003°01'0 0.0
2018-Feb-16 00:58N 53°27' W 003°01'0 0.0
2018-Feb-16 00:22N 53°27' W 003°01'0 0.0
2018-Feb-15 23:58N 53°27' W 003°01'0 0.0
2018-Feb-15 23:28N 53°27' W 003°01'0 0.0
2018-Feb-15 22:58N 53°27' W 003°01'0 0.0
2018-Feb-15 22:28N 53°27' W 003°01'0 0.0
2018-Feb-15 21:58N 53°27' W 003°01'0 0.0
2018-Feb-15 21:28N 53°27' W 003°01'0 0.0
2018-Feb-15 20:58N 53°27' W 003°01'0 0.0
2018-Feb-15 20:22N 53°27' W 003°01'0 0.0
2018-Feb-15 19:58N 53°27' W 003°01'0 0.0
2018-Feb-15 19:28N 53°27' W 003°01'0 0.0
2018-Feb-15 18:58N 53°27' W 003°01'0 0.0
2018-Feb-15 18:28N 53°27' W 003°01'0 0.0
2018-Feb-15 17:58N 53°27' W 003°01'0 0.0
2018-Feb-15 17:28N 53°27' W 003°01'0 0.0
2018-Feb-15 16:55N 53°27' W 003°01'0 0.0
2018-Feb-15 16:28N 53°27' W 003°01'0 0.0
2018-Feb-15 15:58N 53°27' W 003°01'0 0.0
2018-Feb-15 15:28N 53°27' W 003°01'0 0.0
2018-Feb-15 14:58N 53°27' W 003°01'0 0.0
2018-Feb-15 14:28N 53°27' W 003°01'  
Track history (hours):
 
Tides and Currents Weather Stations Pressure Air Temp Water Temp Dewpoint Dewpoint Depression Visibility Wind Speed Wind Dir Waves Ship Positions

Perle

Last reported at 2018-Feb-25 14:12 UTC. Time now 2018-Feb-25 15:41 UTC.
Position N 56°36' W 002°04'.

Length 90 m; draft 5.8 m.

Type: Cargo ship. MMSI: 305882000.

Date/timePositionNaut miles runAvg speedWind from/ knotsBaromVisibWave heightAir tempDewpointWater temp
2018-Feb-25 14:12N 56°36' W 002°04'64 9.4
2018-Feb-25 07:21N 56°06' W 000°22'315 9.4
2018-Feb-23 21:57N 54°02' E 008°03'510.4
2018-Feb-23 21:29N 54°00' E 008°11'510.9
2018-Feb-23 21:00N 53°60' E 008°20'813.4
2018-Feb-23 20:25N 53°58' E 008°33'512.4
2018-Feb-23 20:00N 53°56' E 008°40'612.3
2018-Feb-23 19:30N 53°51' E 008°47'511.0
2018-Feb-23 19:00N 53°51' E 008°56'5 9.7
2018-Feb-23 18:30N 53°52' E 009°04'4 8.7
2018-Feb-23 18:00N 53°53' E 009°11'4 8.3
2018-Feb-23 17:30N 53°52' E 009°18'4 8.0
2018-Feb-23 17:00N 53°49' E 009°22'4 7.8
2018-Feb-23 16:30N 53°45' E 009°25'4 7.8
2018-Feb-23 16:00N 53°42' E 009°29'4 8.1
2018-Feb-23 15:30N 53°39' E 009°31'5 9.6
2018-Feb-23 15:00N 53°35' E 009°37'611.4
2018-Feb-23 14:30N 53°34' E 009°46'611.1
2018-Feb-23 14:00N 53°32' E 009°55'3 6.8
2018-Feb-23 13:30N 53°30' E 009°59'0 0.0
2018-Feb-23 12:59N 53°30' E 009°59'0 0.0
2018-Feb-23 12:29N 53°30' E 009°59'0 0.0
2018-Feb-23 11:59N 53°30' E 009°59'0 0.0
2018-Feb-23 11:29N 53°30' E 009°59'0 0.0
2018-Feb-23 10:59N 53°30' E 009°59'0 0.0
2018-Feb-23 10:29N 53°30' E 009°59'0 0.0
2018-Feb-23 09:59N 53°30' E 009°59'0 0.0
2018-Feb-23 09:29N 53°30' E 009°59'0 0.0
2018-Feb-23 08:59N 53°30' E 009°59'0 0.0
2018-Feb-23 08:29N 53°30' E 009°59'0 0.0
2018-Feb-23 07:56N 53°30' E 009°59'0 0.0
2018-Feb-23 07:29N 53°30' E 009°59'0 0.0
2018-Feb-23 06:59N 53°30' E 009°59'0 0.0
2018-Feb-23 06:29N 53°30' E 009°59'0 0.0
2018-Feb-23 05:59N 53°30' E 009°59'0 0.0
2018-Feb-23 05:29N 53°30' E 009°59'0 0.0
2018-Feb-23 04:59N 53°30' E 009°59'0 0.0
2018-Feb-23 04:29N 53°30' E 009°59'0 0.0
2018-Feb-23 03:59N 53°30' E 009°59'0 0.0
2018-Feb-23 03:29N 53°30' E 009°59'0 0.0
2018-Feb-23 02:59N 53°30' E 009°59'0 0.0
2018-Feb-23 02:29N 53°30' E 009°59'0 0.0
2018-Feb-23 01:59N 53°30' E 009°59'0 0.0
2018-Feb-23 01:29N 53°30' E 009°59'0 0.0
2018-Feb-23 00:59N 53°30' E 009°59'0 0.0
2018-Feb-23 00:29N 53°30' E 009°59'0 0.0
2018-Feb-22 23:56N 53°30' E 009°59'0 0.0
2018-Feb-22 23:29N 53°30' E 009°59'0 0.0
2018-Feb-22 22:59N 53°30' E 009°59'0 0.0
2018-Feb-22 22:29N 53°30' E 009°59'0 0.0
2018-Feb-22 21:59N 53°30' E 009°59'0 0.0
2018-Feb-22 21:29N 53°30' E 009°59'0 0.0
2018-Feb-22 20:59N 53°30' E 009°59'0 0.0
2018-Feb-22 20:29N 53°30' E 009°59'0 0.0
2018-Feb-22 19:59N 53°30' E 009°59'0 0.0
2018-Feb-22 19:29N 53°30' E 009°59'0 0.0
2018-Feb-22 18:59N 53°30' E 009°59'0 0.0
2018-Feb-22 18:29N 53°30' E 009°59'0 0.0
2018-Feb-22 17:59N 53°30' E 009°59'0 0.0
2018-Feb-22 17:29N 53°30' E 009°59'0 0.0
2018-Feb-22 16:59N 53°30' E 009°59'0 0.0
2018-Feb-22 16:29N 53°30' E 009°59'0 0.0
2018-Feb-22 15:59N 53°30' E 009°59'0 0.0
2018-Feb-22 15:29N 53°30' E 009°59'0 0.0
2018-Feb-22 14:59N 53°30' E 009°59'0 0.0
2018-Feb-22 14:29N 53°30' E 009°59'0 0.0
2018-Feb-22 13:59N 53°30' E 009°59'0 0.0
2018-Feb-22 13:29N 53°30' E 009°59'0 0.0
2018-Feb-22 12:59N 53°30' E 009°59'0 0.0
2018-Feb-22 12:29N 53°30' E 009°59'0 0.0
2018-Feb-22 11:59N 53°30' E 009°59'0 0.0
2018-Feb-22 11:29N 53°30' E 009°59'0 0.0
2018-Feb-22 10:59N 53°30' E 009°59'0 0.0
2018-Feb-22 10:29N 53°30' E 009°59'0 0.0
2018-Feb-22 09:59N 53°30' E 009°59'0 0.0
2018-Feb-22 09:29N 53°30' E 009°59'0 0.0
2018-Feb-22 08:56N 53°30' E 009°59'0 0.0
2018-Feb-22 08:29N 53°30' E 009°59'1 1.5
2018-Feb-22 08:00N 53°30' E 009°58'3 6.3
2018-Feb-22 07:30N 53°32' E 009°54'4 8.4
2018-Feb-22 07:00N 53°33' E 009°47'4 9.0
2018-Feb-22 06:30N 53°34' E 009°40'5 9.8
2018-Feb-22 06:00N 53°37' E 009°33'4 8.4
2018-Feb-22 05:30N 53°41' E 009°30'4 8.7
2018-Feb-22 05:00N 53°44' E 009°26'4 9.0
2018-Feb-22 04:30N 53°48' E 009°22'4 8.5
2018-Feb-22 04:00N 53°51' E 009°18'4 7.2
2018-Feb-22 03:30N 53°53' E 009°12'4 7.3
2018-Feb-22 03:00N 53°53' E 009°06'510.7
2018-Feb-22 02:30N 53°51' E 008°57'510.9
2018-Feb-22 02:00N 53°50' E 008°48'510.2
2018-Feb-22 01:30N 53°54' E 008°42'611.0
2018-Feb-22 01:00N 53°58' E 008°35'16210.3
2018-Feb-21 09:16N 52°60' E 004°21'412.5
2018-Feb-21 08:55N 52°56' E 004°17'9510.5
2018-Feb-20 23:51N 52°11' E 001°59'3 8.9
2018-Feb-20 23:30N 52°10' E 001°55'4 8.7
2018-Feb-20 23:00N 52°08' E 001°48'4 8.3
2018-Feb-20 22:30N 52°05' E 001°43'4 8.1
2018-Feb-20 22:00N 52°03' E 001°38'4 8.3
2018-Feb-20 21:30N 51°59' E 001°35'4 8.3
2018-Feb-20 21:00N 51°56' E 001°31'4 8.6
2018-Feb-20 20:30N 51°56' E 001°24'4 8.4
2018-Feb-20 20:00N 51°57' E 001°18'4 8.9
2018-Feb-20 19:30N 52°00' E 001°12'3 5.6
2018-Feb-20 19:00N 52°03' E 001°10'0 0.0
2018-Feb-20 18:28N 52°03' E 001°10'0 0.0
2018-Feb-20 17:58N 52°03' E 001°10'0 0.0
2018-Feb-20 17:28N 52°03' E 001°10'0 0.0
2018-Feb-20 16:58N 52°03' E 001°10'0 0.0
2018-Feb-20 16:28N 52°03' E 001°10'0 0.0
2018-Feb-20 15:58N 52°03' E 001°10'0 0.0
2018-Feb-20 15:28N 52°03' E 001°10'0 0.0
2018-Feb-20 14:58N 52°03' E 001°10'0 0.0
2018-Feb-20 14:28N 52°03' E 001°10'0 0.0
2018-Feb-20 13:58N 52°03' E 001°10'0 0.0
2018-Feb-20 13:28N 52°03' E 001°10'0 0.0
2018-Feb-20 12:58N 52°03' E 001°10'0 0.0
2018-Feb-20 12:28N 52°03' E 001°10'0 0.0
2018-Feb-20 11:58N 52°03' E 001°10'0 0.0
2018-Feb-20 11:28N 52°03' E 001°10'0 0.0
2018-Feb-20 10:58N 52°03' E 001°10'0 0.0
2018-Feb-20 10:28N 52°03' E 001°10'0 0.0
2018-Feb-20 09:58N 52°03' E 001°10'0 0.0
2018-Feb-20 09:28N 52°03' E 001°10'0 0.0
2018-Feb-20 08:58N 52°03' E 001°10'0 0.0
2018-Feb-20 08:28N 52°03' E 001°10'0 0.0
2018-Feb-20 07:58N 52°03' E 001°10'0 0.0
2018-Feb-20 07:28N 52°03' E 001°10'0 0.0
2018-Feb-20 06:58N 52°03' E 001°10'0 0.0
2018-Feb-20 06:28N 52°03' E 001°10'0 0.0
2018-Feb-20 05:58N 52°03' E 001°10'0 0.0
2018-Feb-20 05:28N 52°03' E 001°10'0 0.0
2018-Feb-20 04:58N 52°03' E 001°10'0 0.0
2018-Feb-20 04:28N 52°03' E 001°10'0 0.0
2018-Feb-20 03:58N 52°03' E 001°10'0 0.0
2018-Feb-20 03:28N 52°03' E 001°10'0 0.0
2018-Feb-20 02:58N 52°03' E 001°10'0 0.0
2018-Feb-20 02:28N 52°03' E 001°10'0 0.0
2018-Feb-20 01:58N 52°03' E 001°10'0 0.0
2018-Feb-20 01:28N 52°03' E 001°10'0 0.0
2018-Feb-20 00:58N 52°03' E 001°10'0 0.0
2018-Feb-20 00:28N 52°03' E 001°10'0 0.0
2018-Feb-19 23:58N 52°03' E 001°10'0 0.0
2018-Feb-19 23:31N 52°03' E 001°10'2 4.6
2018-Feb-19 23:01N 52°01' E 001°11'4 7.4
2018-Feb-19 22:31N 51°59' E 001°17'4 8.0
2018-Feb-19 22:01N 51°56' E 001°21'4 7.1
2018-Feb-19 21:31N 51°56' E 001°26'3 6.5
2018-Feb-19 21:01N 51°57' E 001°31'3 5.5
2018-Feb-19 20:31N 51°55' E 001°34'2 4.6
2018-Feb-19 20:00N 51°52' E 001°35'3 5.2
2018-Feb-19 19:30N 51°52' E 001°39'3 5.2
2018-Feb-19 19:01N 51°51' E 001°43'3 6.2
2018-Feb-19 18:30N 51°50' E 001°48'4 8.8
2018-Feb-19 18:01N 51°46' E 001°48'5 9.0
2018-Feb-19 17:30N 51°41' E 001°48'4 9.1
2018-Feb-19 17:01N 51°37' E 001°49'5 9.0
2018-Feb-19 16:31N 51°32' E 001°49'5 9.1
2018-Feb-19 16:01N 51°28' E 001°47'5 9.1
2018-Feb-19 15:30N 51°24' E 001°46'612.4
2018-Feb-19 15:00N 51°18' E 001°41'713.3
2018-Feb-19 14:31N 51°12' E 001°37'510.7
2018-Feb-19 14:01N 51°07' E 001°39'612.7
2018-Feb-19 13:30N 51°01' E 001°33'712.7
2018-Feb-19 12:56N 50°56' E 001°26'67 9.6
2018-Feb-19 05:55N 50°20' W 000°04'47 8.4
2018-Feb-19 00:19N 50°08' W 001°15'411.5
2018-Feb-19 00:00N 50°07' W 001°21'612.1
2018-Feb-18 23:30N 50°05' W 001°30'612.6
2018-Feb-18 23:00N 50°03' W 001°39'713.1
2018-Feb-18 22:30N 50°02' W 001°49'6111.7
2018-Feb-18 17:19N 49°51' W 003°22'3 9.7
2018-Feb-18 17:00N 49°51' W 003°26'6 9.1
2018-Feb-18 16:22N 49°51' W 003°35'6 8.8
2018-Feb-18 15:42N 49°51' W 003°44'2 8.6
2018-Feb-18 15:30N 49°51' W 003°47'212 5.6
2018-Feb-17 01:23N 53°22' W 003°49'411.0
2018-Feb-17 01:00N 53°20' W 003°43'3 2.3
2018-Feb-16 23:48N 53°18' W 003°40'0 0.0
2018-Feb-16 23:27N 53°18' W 003°40'0 0.0
2018-Feb-16 23:00N 53°18' W 003°40'0 0.0
2018-Feb-16 22:24N 53°18' W 003°40'0 0.0
2018-Feb-16 21:58N 53°18' W 003°40'0 0.0
2018-Feb-16 21:18N 53°18' W 003°40'0 0.0
2018-Feb-16 21:00N 53°18' W 003°40'0 0.0
2018-Feb-16 20:30N 53°18' W 003°40'0 0.0
2018-Feb-16 20:00N 53°18' W 003°40'1 1.1
2018-Feb-16 19:30N 53°18' W 003°40'2 4.1
2018-Feb-16 19:00N 53°20' W 003°42'610.6
2018-Feb-16 18:29N 53°25' W 003°44'510.5
2018-Feb-16 18:00N 53°30' W 003°43'4 8.7
2018-Feb-16 17:30N 53°33' W 003°37'612.1
2018-Feb-16 17:00N 53°33' W 003°27'612.1
2018-Feb-16 16:30N 53°32' W 003°16'611.5
2018-Feb-16 16:00N 53°31' W 003°07'611.7
2018-Feb-16 15:30N 53°26' W 003°01'0 0.3
2018-Feb-16 15:00N 53°26' W 003°01'0 0.8
2018-Feb-16 14:30N 53°27' W 003°01'0 0.2
2018-Feb-16 13:55N 53°27' W 003°01'0 0.0
2018-Feb-16 13:28N 53°27' W 003°01'0 0.0
2018-Feb-16 12:55N 53°27' W 003°01'0 0.0
2018-Feb-16 12:22N 53°27' W 003°01'0 0.0
2018-Feb-16 11:58N 53°27' W 003°01'0 0.0
2018-Feb-16 11:28N 53°27' W 003°01'0 0.0
2018-Feb-16 10:55N 53°27' W 003°01'0 0.0
2018-Feb-16 10:25N 53°27' W 003°01'0 0.0
2018-Feb-16 09:55N 53°27' W 003°01'0 0.0
2018-Feb-16 09:28N 53°27' W 003°01'0 0.0
2018-Feb-16 08:58N 53°27' W 003°01'0 0.0
2018-Feb-16 08:28N 53°27' W 003°01'0 0.0
2018-Feb-16 07:58N 53°27' W 003°01'0 0.0
2018-Feb-16 07:28N 53°27' W 003°01'0 0.0
2018-Feb-16 06:58N 53°27' W 003°01'0 0.0
2018-Feb-16 06:28N 53°27' W 003°01'0 0.0
2018-Feb-16 05:58N 53°27' W 003°01'0 0.0
2018-Feb-16 05:28N 53°27' W 003°01'0 0.0
2018-Feb-16 04:52N 53°27' W 003°01'0 0.0
2018-Feb-16 04:28N 53°27' W 003°01'0 0.0
2018-Feb-16 03:58N 53°27' W 003°01'0 0.0
2018-Feb-16 03:28N 53°27' W 003°01'0 0.0
2018-Feb-16 02:58N 53°27' W 003°01'0 0.0
2018-Feb-16 02:28N 53°27' W 003°01'0 0.0
2018-Feb-16 01:58N 53°27' W 003°01'0 0.0
2018-Feb-16 01:28N 53°27' W 003°01'0 0.0
2018-Feb-16 00:58N 53°27' W 003°01'0 0.0
2018-Feb-16 00:22N 53°27' W 003°01'0 0.0
2018-Feb-15 23:58N 53°27' W 003°01'0 0.0
2018-Feb-15 23:28N 53°27' W 003°01'0 0.0
2018-Feb-15 22:58N 53°27' W 003°01'0 0.0
2018-Feb-15 22:28N 53°27' W 003°01'0 0.0
2018-Feb-15 21:58N 53°27' W 003°01'0 0.0
2018-Feb-15 21:28N 53°27' W 003°01'0 0.0
2018-Feb-15 20:58N 53°27' W 003°01'0 0.0
2018-Feb-15 20:22N 53°27' W 003°01'0 0.0
2018-Feb-15 19:58N 53°27' W 003°01'0 0.0
2018-Feb-15 19:28N 53°27' W 003°01'0 0.0
2018-Feb-15 18:58N 53°27' W 003°01'0 0.0
2018-Feb-15 18:28N 53°27' W 003°01'0 0.0
2018-Feb-15 17:58N 53°27' W 003°01'0 0.0
2018-Feb-15 17:28N 53°27' W 003°01'0 0.0
2018-Feb-15 16:55N 53°27' W 003°01'0 0.0
2018-Feb-15 16:28N 53°27' W 003°01'0 0.0
2018-Feb-15 15:58N 53°27' W 003°01'0 0.0
2018-Feb-15 15:28N 53°27' W 003°01'0 0.0
2018-Feb-15 14:58N 53°27' W 003°01'0 0.0
2018-Feb-15 14:28N 53°27' W 003°01'  

Dump ship's entire track history